Time;durP1;ratioP1;P1;durP2;ratioP2;P2;SDS_P1;SDS_P2;PMS_P1;PMS_P2;Temp;Humidity;BMP_temperature;BMP_pressure;BME280_temperature;BME280_humidity;BME280_pressure;Samples;Min_cycle;Max_cycle;Signal;HPM_P1;HPM_P2
2023/06/21 00:02:19;;;;;;;10.10;8.18;;;20.50;99.90;;;;;;5006960;28;20025;-77
2023/06/21 00:04:45;;;;;;;10.50;8.20;;;20.50;99.90;;;;;;5011428;28;20036;-78
2023/06/21 00:07:11;;;;;;;9.88;8.80;;;20.40;99.90;;;;;;5006623;28;20493;-78
2023/06/21 00:09:37;;;;;;;8.85;7.95;;;20.40;99.90;;;;;;5002061;28;20026;-78
2023/06/21 00:12:05;;;;;;;9.77;7.25;;;20.40;99.90;;;;;;4995036;28;20029;-78
2023/06/21 00:14:30;;;;;;;11.80;8.30;;;20.40;99.90;;;;;;5015630;28;20140;-78
2023/06/21 00:16:56;;;;;;;8.90;7.63;;;20.40;99.90;;;;;;5011937;28;20466;-78
2023/06/21 00:19:22;;;;;;;10.35;7.80;;;20.40;99.90;;;;;;5008266;28;20124;-78
2023/06/21 00:21:49;;;;;;;10.68;8.38;;;20.40;99.90;;;;;;5001502;28;20021;-79
2023/06/21 00:24:15;;;;;;;8.20;7.20;;;20.40;99.90;;;;;;5013297;28;20045;-77
2023/06/21 00:26:41;;;;;;;10.02;7.63;;;20.40;99.90;;;;;;5016115;28;20021;-78
2023/06/21 00:29:08;;;;;;;14.82;8.02;;;20.40;99.90;;;;;;5012706;28;20482;-78
2023/06/21 00:31:34;;;;;;;11.98;7.47;;;20.40;99.90;;;;;;5005224;28;20022;-78
2023/06/21 00:34:00;;;;;;;9.55;7.72;;;20.30;99.90;;;;;;5012963;28;20033;-77
2023/06/21 00:36:25;;;;;;;9.25;7.70;;;20.30;99.90;;;;;;5016928;28;20033;-79
2023/06/21 00:38:51;;;;;;;8.32;7.45;;;20.30;99.90;;;;;;5017477;28;20107;-79
2023/06/21 00:41:16;;;;;;;11.50;8.40;;;20.40;99.90;;;;;;5012324;28;20036;-79
2023/06/21 00:43:42;;;;;;;10.40;8.70;;;20.30;99.90;;;;;;5015501;28;20037;-79
2023/06/21 00:46:07;;;;;;;9.55;7.90;;;20.30;99.90;;;;;;5013447;28;20108;-78
2023/06/21 00:48:33;;;;;;;11.55;7.80;;;20.30;99.90;;;;;;5006317;28;20455;-78
2023/06/21 00:50:59;;;;;;;11.23;8.45;;;20.30;99.90;;;;;;5002540;28;20452;-81
2023/06/21 00:53:28;;;;;;;10.63;8.00;;;20.30;99.90;;;;;;5006014;28;20484;-79
2023/06/21 00:55:55;;;;;;;9.60;7.90;;;20.30;99.90;;;;;;4997601;28;20018;-79
2023/06/21 00:58:21;;;;;;;16.85;8.23;;;20.30;99.90;;;;;;5019821;28;20103;-78
2023/06/21 01:00:50;;;;;;;15.73;8.40;;;20.20;99.90;;;;;;5006264;28;20026;-79
2023/06/21 01:03:18;;;;;;;14.60;8.43;;;20.10;99.90;;;;;;5016764;28;20010;-78
2023/06/21 01:06:04;;;;;;;10.35;8.15;;;20.10;99.90;;;;;;5016573;28;20045;-78
2023/06/21 01:08:54;;;;;;;13.40;8.80;;;20.10;99.90;;;;;;5016155;28;20026;-79
2023/06/21 01:11:49;;;;;;;12.00;9.13;;;20.10;99.90;;;;;;5016518;28;20129;-78
2023/06/21 01:14:27;;;;;;;13.75;8.35;;;20.10;99.90;;;;;;5004650;28;20037;-78
2023/06/21 01:16:55;;;;;;;10.57;8.57;;;20.10;99.90;;;;;;5017940;28;20029;-78
2023/06/21 01:19:43;;;;;;;10.02;8.60;;;20.10;99.90;;;;;;5012958;28;20032;-79
2023/06/21 01:22:40;;;;;;;9.90;8.07;;;20.10;99.90;;;;;;5017514;28;20036;-78
2023/06/21 01:25:12;;;;;;;14.55;8.77;;;20.00;99.90;;;;;;5015554;28;20030;-78
2023/06/21 01:27:56;;;;;;;17.70;10.00;;;19.90;99.90;;;;;;4996604;28;20026;-78
2023/06/21 01:30:25;;;;;;;12.50;8.93;;;19.90;99.90;;;;;;5004942;28;20040;-78
2023/06/21 01:32:53;;;;;;;15.55;9.68;;;19.90;99.90;;;;;;5015531;28;20045;-78
2023/06/21 01:35:21;;;;;;;11.70;9.13;;;19.90;99.90;;;;;;5012510;28;20167;-78
2023/06/21 01:37:49;;;;;;;12.35;9.88;;;19.80;99.90;;;;;;4996485;28;20026;-78
2023/06/21 01:40:15;;;;;;;13.80;8.88;;;19.80;99.90;;;;;;5013728;28;20030;-78
2023/06/21 01:42:41;;;;;;;12.02;9.75;;;19.80;99.90;;;;;;5004790;28;20025;-78
2023/06/21 01:45:08;;;;;;;15.63;9.60;;;19.80;99.90;;;;;;5013009;28;20116;-78
2023/06/21 01:47:35;;;;;;;11.90;9.23;;;19.80;99.90;;;;;;5001958;28;20025;-78
2023/06/21 01:50:05;;;;;;;11.70;9.35;;;19.80;99.90;;;;;;4994856;28;20548;-78
2023/06/21 01:52:32;;;;;;;14.13;9.57;;;19.80;99.90;;;;;;5004175;28;20589;-78
2023/06/21 01:54:58;;;;;;;13.40;9.82;;;19.80;99.90;;;;;;5003046;28;20033;-78
2023/06/21 01:57:25;;;;;;;14.13;9.88;;;19.80;99.90;;;;;;4994310;28;20509;-79
2023/06/21 01:59:52;;;;;;;16.58;10.65;;;19.80;99.90;;;;;;5000403;28;20762;-78
2023/06/21 02:02:21;;;;;;;14.65;9.25;;;19.80;99.90;;;;;;5015136;28;20022;-78
2023/06/21 02:04:47;;;;;;;18.73;9.52;;;19.80;99.90;;;;;;5014126;28;20033;-77
2023/06/21 02:07:14;;;;;;;13.20;9.38;;;19.70;99.90;;;;;;5009408;28;20044;-78
2023/06/21 02:09:42;;;;;;;15.52;10.43;;;19.70;99.90;;;;;;5004594;28;20411;-78
2023/06/21 02:12:09;;;;;;;13.60;9.80;;;19.70;99.90;;;;;;5012514;28;20168;-78
2023/06/21 02:14:36;;;;;;;20.80;9.98;;;19.70;99.90;;;;;;5012856;28;20036;-78
2023/06/21 02:17:02;;;;;;;15.07;9.63;;;19.80;99.90;;;;;;5009056;28;20029;-78
2023/06/21 02:19:28;;;;;;;12.50;10.13;;;19.80;99.90;;;;;;5001993;28;20037;-78
2023/06/21 02:21:54;;;;;;;12.27;10.27;;;19.80;99.90;;;;;;5011653;28;20021;-78
2023/06/21 02:24:20;;;;;;;14.35;10.75;;;19.80;99.90;;;;;;5003277;28;20037;-78
2023/06/21 02:26:48;;;;;;;15.25;10.05;;;19.80;99.90;;;;;;5012910;28;20053;-77
2023/06/21 02:29:14;;;;;;;15.02;10.52;;;19.80;99.90;;;;;;5013636;28;20046;-78
2023/06/21 02:31:40;;;;;;;14.85;10.52;;;19.70;99.90;;;;;;5010397;28;20095;-77
2023/06/21 02:34:06;;;;;;;15.95;10.63;;;19.70;99.90;;;;;;5003078;28;20477;-78
2023/06/21 02:36:31;;;;;;;17.52;10.15;;;19.70;99.90;;;;;;5012267;28;20417;-77
2023/06/21 02:38:57;;;;;;;13.45;10.48;;;19.60;99.90;;;;;;5010719;28;20108;-78
2023/06/21 02:41:23;;;;;;;18.55;10.52;;;19.70;99.90;;;;;;5014061;28;20021;-78
2023/06/21 02:43:49;;;;;;;15.75;10.40;;;19.70;99.90;;;;;;5011942;28;20048;-78
2023/06/21 02:46:14;;;;;;;14.10;10.32;;;19.60;99.90;;;;;;5011702;28;20037;-76
2023/06/21 02:48:40;;;;;;;14.27;9.63;;;19.60;99.90;;;;;;5010408;28;20021;-76
2023/06/21 02:51:05;;;;;;;14.40;10.77;;;19.50;99.90;;;;;;4996058;28;20373;-78
2023/06/21 02:53:33;;;;;;;14.88;10.65;;;19.50;99.90;;;;;;5011174;28;20073;-77
2023/06/21 02:55:59;;;;;;;17.17;10.52;;;19.50;99.90;;;;;;5000494;28;20042;-76
2023/06/21 02:58:24;;;;;;;16.00;11.13;;;19.50;99.90;;;;;;5012606;28;20022;-77
2023/06/21 03:00:50;;;;;;;17.73;11.00;;;19.50;99.90;;;;;;4997966;28;20607;-78
2023/06/21 03:03:16;;;;;;;18.92;10.55;;;19.60;99.90;;;;;;5012658;28;20481;-78
2023/06/21 03:05:42;;;;;;;14.52;10.52;;;19.60;99.90;;;;;;4997245;28;20770;-78
2023/06/21 03:08:08;;;;;;;16.00;10.30;;;19.60;99.90;;;;;;5003696;28;20057;-77
2023/06/21 03:10:34;;;;;;;15.77;10.15;;;19.60;99.90;;;;;;4994796;28;20103;-78
2023/06/21 03:13:00;;;;;;;15.23;11.00;;;19.60;99.90;;;;;;5009126;28;20085;-77
2023/06/21 03:15:26;;;;;;;19.48;11.18;;;19.60;99.90;;;;;;5012867;28;20355;-77
2023/06/21 03:17:51;;;;;;;15.52;10.55;;;19.60;99.90;;;;;;5006478;28;20026;-77
2023/06/21 03:20:17;;;;;;;14.13;10.63;;;19.60;99.90;;;;;;5013879;28;20040;-78
2023/06/21 03:22:46;;;;;;;16.70;11.73;;;19.60;99.90;;;;;;5001217;28;20048;-78
2023/06/21 03:25:13;;;;;;;15.63;11.23;;;19.60;99.90;;;;;;4997122;28;20108;-77
2023/06/21 03:27:39;;;;;;;17.20;11.45;;;19.60;99.90;;;;;;5011592;28;20077;-77
2023/06/21 03:30:10;;;;;;;17.38;11.63;;;19.60;99.90;;;;;;5012498;28;20157;-77
2023/06/21 03:32:36;;;;;;;16.05;11.60;;;19.60;99.90;;;;;;5013934;28;20480;-78
2023/06/21 03:35:02;;;;;;;16.02;11.10;;;19.60;99.90;;;;;;5009391;28;20022;-77
2023/06/21 03:37:28;;;;;;;14.43;11.32;;;19.60;99.90;;;;;;5011997;28;20362;-78
2023/06/21 03:39:56;;;;;;;17.42;10.57;;;19.60;99.90;;;;;;5011388;28;20098;-77
2023/06/21 03:42:22;;;;;;;19.90;11.70;;;19.70;99.90;;;;;;5011554;28;20057;-78
2023/06/21 03:44:47;;;;;;;15.88;10.93;;;19.60;99.90;;;;;;5012730;28;20439;-77
2023/06/21 03:47:13;;;;;;;20.63;11.32;;;19.60;99.90;;;;;;5011400;28;20025;-77
2023/06/21 03:49:39;;;;;;;19.90;12.27;;;19.60;99.90;;;;;;5007672;28;20021;-78
2023/06/21 03:52:05;;;;;;;18.85;11.30;;;19.60;99.90;;;;;;5012601;28;20045;-77
2023/06/21 03:54:31;;;;;;;16.20;11.63;;;19.70;99.90;;;;;;4994948;28;20478;-77
2023/06/21 03:56:57;;;;;;;15.70;11.07;;;19.70;99.90;;;;;;5012567;28;20117;-78
2023/06/21 03:59:23;;;;;;;21.98;12.65;;;19.80;99.90;;;;;;5014054;28;20026;-77
2023/06/21 04:01:49;;;;;;;18.23;11.90;;;19.80;99.90;;;;;;5014255;28;20514;-77
2023/06/21 04:04:14;;;;;;;13.63;10.50;;;19.80;99.90;;;;;;5013320;28;20057;-78
2023/06/21 04:06:40;;;;;;;16.55;11.45;;;19.80;99.90;;;;;;5010231;28;20018;-78
2023/06/21 04:09:05;;;;;;;16.27;11.07;;;19.90;99.90;;;;;;5013363;28;20029;-77
2023/06/21 04:11:31;;;;;;;17.48;11.23;;;20.00;99.90;;;;;;5013301;28;20021;-77
2023/06/21 04:13:57;;;;;;;17.10;12.13;;;20.00;99.90;;;;;;5001837;28;20132;-77
2023/06/21 04:16:23;;;;;;;15.90;11.85;;;20.10;99.90;;;;;;4994886;28;20024;-78
2023/06/21 04:18:49;;;;;;;18.63;11.50;;;20.10;99.90;;;;;;5016048;28;20057;-77
2023/06/21 04:21:14;;;;;;;18.92;12.18;;;20.10;99.90;;;;;;5012033;28;20026;-78
2023/06/21 04:23:40;;;;;;;16.92;12.18;;;20.20;99.90;;;;;;4993813;28;20029;-78
2023/06/21 04:26:08;;;;;;;18.35;11.32;;;20.30;99.90;;;;;;5013274;28;20105;-77
2023/06/21 04:28:34;;;;;;;16.05;11.43;;;20.30;99.90;;;;;;5015196;28;20033;-77
2023/06/21 04:31:00;;;;;;;15.95;12.13;;;20.30;99.90;;;;;;5001160;28;20080;-77
2023/06/21 04:33:26;;;;;;;19.40;13.45;;;20.30;99.90;;;;;;5016819;28;20022;-78
2023/06/21 04:35:52;;;;;;;22.20;12.25;;;20.40;99.90;;;;;;5012637;28;20021;-78
2023/06/21 04:38:18;;;;;;;18.38;13.48;;;20.40;99.90;;;;;;5001377;28;20017;-78
2023/06/21 04:40:44;;;;;;;19.25;12.80;;;20.50;99.90;;;;;;5001188;28;20949;-78
2023/06/21 04:43:09;;;;;;;19.40;13.18;;;20.60;99.90;;;;;;5011597;28;20103;-78
2023/06/21 04:45:35;;;;;;;17.45;12.93;;;20.60;99.90;;;;;;5012269;28;20328;-78
2023/06/21 04:48:03;;;;;;;21.48;13.43;;;20.60;99.90;;;;;;4993282;28;20084;-77
2023/06/21 04:50:29;;;;;;;15.90;12.68;;;20.70;99.90;;;;;;5004638;28;20033;-78
2023/06/21 04:53:00;;;;;;;18.90;12.50;;;20.70;99.90;;;;;;5015658;28;20038;-78
2023/06/21 04:55:26;;;;;;;21.75;13.35;;;20.70;99.90;;;;;;5001424;28;20457;-77
2023/06/21 04:57:55;;;;;;;17.45;12.13;;;20.80;99.90;;;;;;5015471;28;20026;-78
2023/06/21 05:00:21;;;;;;;18.27;12.10;;;20.80;99.90;;;;;;5016308;28;20032;-77
2023/06/21 05:02:47;;;;;;;17.58;12.30;;;20.90;99.90;;;;;;5014260;28;20014;-77
2023/06/21 05:05:13;;;;;;;18.83;12.10;;;20.90;99.90;;;;;;5002197;28;20029;-77
2023/06/21 05:07:38;;;;;;;18.77;12.73;;;21.00;99.90;;;;;;5014301;28;20028;-77
2023/06/21 05:10:09;;;;;;;17.67;12.48;;;21.10;99.90;;;;;;5005931;28;20037;-77
2023/06/21 05:12:37;;;;;;;23.27;12.40;;;21.20;99.90;;;;;;5016889;28;20045;-77
2023/06/21 05:15:04;;;;;;;22.52;12.95;;;21.30;99.90;;;;;;5017083;28;20496;-80
2023/06/21 05:17:30;;;;;;;22.75;13.68;;;21.20;99.90;;;;;;5007988;28;20022;-77
2023/06/21 05:19:56;;;;;;;20.63;13.35;;;21.30;99.90;;;;;;5014685;28;20025;-78
2023/06/21 05:22:21;;;;;;;24.80;12.82;;;21.40;99.90;;;;;;5002660;28;20355;-77
2023/06/21 05:24:47;;;;;;;18.08;12.10;;;21.40;99.90;;;;;;5018018;28;20366;-78
2023/06/21 05:27:12;;;;;;;16.98;13.30;;;21.40;99.90;;;;;;5037221;28;20014;-76
2023/06/21 05:29:38;;;;;;;19.63;13.10;;;21.50;99.90;;;;;;5037464;28;20030;-78
2023/06/21 05:32:04;;;;;;;19.00;13.18;;;21.50;99.90;;;;;;5004589;28;20033;-78
2023/06/21 05:34:32;;;;;;;21.88;13.85;;;21.60;99.90;;;;;;5019757;28;20362;-77
2023/06/21 05:36:57;;;;;;;19.88;13.32;;;21.60;99.90;;;;;;5014103;28;20272;-77
2023/06/21 05:39:23;;;;;;;20.73;13.60;;;21.60;99.90;;;;;;5014114;28;20029;-78
2023/06/21 05:41:49;;;;;;;17.75;13.25;;;21.60;99.90;;;;;;5024454;28;20033;-78
2023/06/21 05:44:15;;;;;;;18.60;14.07;;;21.60;99.90;;;;;;5024465;28;20041;-78
2023/06/21 05:46:44;;;;;;;23.02;14.27;;;21.70;99.90;;;;;;5014343;28;20032;-78
2023/06/21 05:49:09;;;;;;;20.20;13.48;;;21.70;99.90;;;;;;5010699;28;20472;-78
2023/06/21 05:51:35;;;;;;;24.15;13.93;;;21.70;99.90;;;;;;5002379;28;20029;-78
2023/06/21 05:54:00;;;;;;;22.48;13.38;;;21.80;99.90;;;;;;5003486;28;20029;-78
2023/06/21 05:56:27;;;;;;;20.58;14.15;;;21.70;99.90;;;;;;5000385;28;20112;-78
2023/06/21 05:58:55;;;;;;;20.83;13.52;;;21.80;99.90;;;;;;5016369;28;20025;-78
2023/06/21 06:01:21;;;;;;;17.02;13.27;;;21.90;99.90;;;;;;5000249;28;20025;-78
2023/06/21 06:03:47;;;;;;;20.23;13.50;;;21.90;99.90;;;;;;5002740;28;20036;-78
2023/06/21 06:06:15;;;;;;;22.70;15.25;;;21.80;99.90;;;;;;4994974;28;20032;-78
2023/06/21 06:08:41;;;;;;;21.73;14.23;;;21.80;99.90;;;;;;5012621;28;20029;-77
2023/06/21 06:11:07;;;;;;;26.13;15.00;;;21.90;99.90;;;;;;4993439;28;20026;-78
2023/06/21 06:13:32;;;;;;;21.90;14.98;;;22.10;99.90;;;;;;4999205;28;20640;-78
2023/06/21 06:16:02;;;;;;;22.15;15.10;;;22.10;99.90;;;;;;5016552;28;20060;-78
2023/06/21 06:18:28;;;;;;;19.92;13.93;;;22.10;99.90;;;;;;4991395;28;20513;-79
2023/06/21 06:20:56;;;;;;;17.52;13.27;;;22.10;99.90;;;;;;5015082;28;20036;-78
2023/06/21 06:23:21;;;;;;;18.33;13.80;;;22.30;99.90;;;;;;5011312;28;20041;-79
2023/06/21 06:25:47;;;;;;;20.73;13.77;;;22.40;99.90;;;;;;5007219;28;20462;-78
2023/06/21 06:28:12;;;;;;;19.77;14.32;;;22.30;99.90;;;;;;5014653;28;20025;-78
2023/06/21 06:30:38;;;;;;;17.60;13.70;;;22.50;99.90;;;;;;5013595;28;20906;-79
2023/06/21 06:33:03;;;;;;;20.25;14.10;;;22.60;99.90;;;;;;5012201;28;20123;-78
2023/06/21 06:35:29;;;;;;;21.70;15.90;;;22.70;99.90;;;;;;5010093;28;20521;-78
2023/06/21 06:37:55;;;;;;;21.20;16.63;;;22.90;99.90;;;;;;5002071;28;20075;-77
2023/06/21 06:40:20;;;;;;;25.95;16.42;;;22.90;99.90;;;;;;5012326;28;20212;-78
2023/06/21 06:42:46;;;;;;;24.70;17.23;;;22.90;99.90;;;;;;5009928;28;20048;-78
2023/06/21 06:45:11;;;;;;;24.48;16.70;;;23.10;99.90;;;;;;5002546;28;20037;-77
2023/06/21 06:47:37;;;;;;;26.30;18.63;;;23.00;99.90;;;;;;4996067;28;20033;-78
2023/06/21 06:50:04;;;;;;;26.15;19.27;;;23.10;99.90;;;;;;5011332;28;20079;-79
2023/06/21 06:52:32;;;;;;;25.35;19.52;;;23.10;99.90;;;;;;5001999;28;20038;-78
2023/06/21 06:54:58;;;;;;;32.75;21.95;;;23.10;99.90;;;;;;5009379;28;20029;-78
2023/06/21 06:57:23;;;;;;;28.40;21.63;;;23.10;99.90;;;;;;5010995;28;20365;-79
2023/06/21 06:59:49;;;;;;;34.22;22.17;;;23.30;99.90;;;;;;5014828;28;20018;-79
2023/06/21 07:02:15;;;;;;;27.70;21.95;;;23.50;99.90;;;;;;5012843;28;20052;-78
2023/06/21 07:04:43;;;;;;;28.30;20.80;;;23.70;99.90;;;;;;5010384;28;20136;-79
2023/06/21 07:07:08;;;;;;;29.05;22.13;;;23.80;99.90;;;;;;5009395;28;20014;-78
2023/06/21 07:09:34;;;;;;;28.48;22.10;;;23.70;99.90;;;;;;5013787;28;20505;-79
2023/06/21 07:12:01;;;;;;;33.22;24.77;;;23.90;99.90;;;;;;5009527;28;20057;-79
2023/06/21 07:14:27;;;;;;;33.53;22.85;;;23.90;99.90;;;;;;5000305;28;20037;-77
2023/06/21 07:16:53;;;;;;;33.25;23.52;;;23.90;99.90;;;;;;5011158;28;20021;-77
2023/06/21 07:19:19;;;;;;;30.13;23.08;;;23.90;99.90;;;;;;4996945;28;20030;-77
2023/06/21 07:21:44;;;;;;;27.63;21.15;;;23.90;99.90;;;;;;5008616;28;20025;-77
2023/06/21 07:24:11;;;;;;;27.80;19.95;;;24.00;99.90;;;;;;5014691;28;20069;-80
2023/06/21 07:26:36;;;;;;;30.92;21.85;;;24.00;99.90;;;;;;5012949;28;20026;-80
2023/06/21 07:29:02;;;;;;;28.60;21.42;;;24.00;99.90;;;;;;5014930;28;20071;-77
2023/06/21 07:31:32;;;;;;;28.60;21.10;;;24.10;99.90;;;;;;5018957;28;20069;-80
2023/06/21 07:33:58;;;;;;;29.35;20.90;;;24.10;99.90;;;;;;5016564;28;20433;-77
2023/06/21 07:36:27;;;;;;;25.83;19.98;;;24.30;99.90;;;;;;5015604;28;20091;-79
2023/06/21 07:38:54;;;;;;;26.80;18.27;;;24.40;99.90;;;;;;5015933;28;20018;-78
2023/06/21 07:41:20;;;;;;;26.25;20.52;;;24.40;99.90;;;;;;5020763;28;20017;-80
2023/06/21 07:43:48;;;;;;;21.88;18.15;;;24.50;99.90;;;;;;5019634;28;20022;-78
2023/06/21 07:46:14;;;;;;;26.38;18.42;;;24.40;99.90;;;;;;5019731;28;20220;-77
2023/06/21 07:48:42;;;;;;;22.05;18.10;;;24.20;99.90;;;;;;5016250;28;20105;-79
2023/06/21 07:51:07;;;;;;;25.40;18.90;;;24.10;99.90;;;;;;5013493;28;20173;-78
2023/06/21 07:53:33;;;;;;;25.08;18.55;;;24.30;99.90;;;;;;5013214;28;20137;-77
2023/06/21 07:56:00;;;;;;;24.35;18.58;;;24.40;99.90;;;;;;5016544;28;20048;-78
2023/06/21 07:58:26;;;;;;;25.05;19.75;;;24.50;99.90;;;;;;5022715;28;20018;-77
2023/06/21 08:00:52;;;;;;;29.15;21.15;;;24.70;99.90;;;;;;5021711;28;20392;-76
2023/06/21 08:03:17;;;;;;;23.80;19.05;;;24.80;99.90;;;;;;5014894;28;20021;-77
2023/06/21 08:05:43;;;;;;;24.30;19.50;;;24.90;99.90;;;;;;5015911;28;20041;-77
2023/06/21 08:08:08;;;;;;;22.13;17.95;;;25.00;99.90;;;;;;4996563;28;20069;-78
2023/06/21 08:10:34;;;;;;;24.58;19.30;;;25.30;99.90;;;;;;5010053;28;20061;-77
2023/06/21 08:13:00;;;;;;;26.73;19.83;;;25.30;99.90;;;;;;4997461;28;20036;-77
2023/06/21 08:15:25;;;;;;;27.73;19.50;;;25.40;99.90;;;;;;4997466;28;20046;-77
2023/06/21 08:17:51;;;;;;;24.92;20.27;;;25.50;99.90;;;;;;5003195;28;20057;-77
2023/06/21 08:20:17;;;;;;;26.85;21.73;;;25.40;99.90;;;;;;5018385;28;20559;-77
2023/06/21 08:22:43;;;;;;;23.45;19.50;;;25.40;99.90;;;;;;5017009;28;20056;-77
2023/06/21 08:25:08;;;;;;;26.55;19.77;;;25.30;99.90;;;;;;5000562;28;20535;-78
2023/06/21 08:27:34;;;;;;;26.02;20.55;;;25.20;99.90;;;;;;5009152;28;20389;-77
2023/06/21 08:30:00;;;;;;;25.88;20.40;;;25.00;99.90;;;;;;5016678;28;20029;-78
2023/06/21 08:32:25;;;;;;;28.30;19.77;;;25.00;99.90;;;;;;5019244;28;20029;-77
2023/06/21 08:34:54;;;;;;;27.42;21.38;;;25.20;99.90;;;;;;5021579;28;20109;-77
2023/06/21 08:37:24;;;;;;;28.45;22.80;;;25.50;99.90;;;;;;5002368;28;20343;-78
2023/06/21 08:39:52;;;;;;;30.33;23.13;;;25.80;99.90;;;;;;5015866;28;20029;-78
2023/06/21 08:42:19;;;;;;;33.25;22.20;;;25.90;99.90;;;;;;5019199;28;20635;-77
2023/06/21 08:44:45;;;;;;;27.92;20.58;;;25.80;99.90;;;;;;5018757;28;20071;-77
2023/06/21 08:47:13;;;;;;;26.20;20.92;;;25.90;99.90;;;;;;5016591;28;20087;-78
2023/06/21 08:49:41;;;;;;;24.92;20.45;;;25.80;99.90;;;;;;5001794;28;20552;-78
2023/06/21 08:52:11;;;;;;;23.92;20.90;;;25.60;99.90;;;;;;5014640;28;20938;-78
2023/06/21 08:54:39;;;;;;;28.00;20.50;;;25.60;99.90;;;;;;5015360;28;20022;-78
2023/06/21 08:57:22;;;;;;;21.45;17.75;;;25.70;99.90;;;;;;5006521;28;20029;-77
2023/06/21 08:59:54;;;;;;;;;;;25.90;99.90;;;;;;5015273;28;20022;-78
2023/06/21 09:02:35;;;;;;;18.83;13.82;;;26.40;99.90;;;;;;5004420;28;20281;-77
2023/06/21 09:05:06;;;;;;;21.23;15.18;;;27.00;99.90;;;;;;5014770;28;21028;-78
2023/06/21 09:07:35;;;;;;;18.98;13.57;;;27.30;99.90;;;;;;5014212;28;20434;-78
2023/06/21 09:10:03;;;;;;;13.93;12.50;;;27.40;99.90;;;;;;5017121;28;20052;-78
2023/06/21 09:12:30;;;;;;;12.25;10.57;;;27.30;99.90;;;;;;5015147;28;20025;-77
2023/06/21 09:14:56;;;;;;;15.63;12.25;;;27.20;99.90;;;;;;5013478;28;20030;-78
2023/06/21 09:17:23;;;;;;;11.45;9.05;;;27.50;99.90;;;;;;5000404;28;20028;-77
2023/06/21 09:19:49;;;;;;;12.15;8.80;;;27.70;98.10;;;;;;4996938;28;20497;-78
2023/06/21 09:22:15;;;;;;;9.63;8.38;;;28.00;98.80;;;;;;4998818;28;20068;-78
2023/06/21 09:24:40;;;;;;;11.70;9.27;;;28.20;97.50;;;;;;5012846;28;20462;-78
2023/06/21 09:27:06;;;;;;;14.32;11.55;;;27.90;96.50;;;;;;5016805;28;20056;-78
2023/06/21 09:29:32;;;;;;;18.13;13.77;;;27.70;98.20;;;;;;5006395;28;20021;-78
2023/06/21 09:32:01;;;;;;;16.95;13.50;;;28.00;99.60;;;;;;5014166;28;20017;-79
2023/06/21 09:34:30;;;;;;;17.88;12.43;;;28.50;98.30;;;;;;5018248;28;20021;-78
2023/06/21 09:36:55;;;;;;;14.80;11.68;;;28.60;96.80;;;;;;4999601;28;20464;-78
2023/06/21 09:39:27;;;;;;;15.02;13.40;;;28.40;97.00;;;;;;5014338;28;20336;-78
2023/06/21 09:41:53;;;;;;;16.13;12.80;;;28.30;97.60;;;;;;5006078;28;20117;-78
2023/06/21 09:44:22;;;;;;;15.63;12.60;;;28.60;97.10;;;;;;5013993;28;20486;-79
2023/06/21 09:46:48;;;;;;;16.45;11.25;;;29.10;96.80;;;;;;5000796;28;20124;-79
2023/06/21 09:49:15;;;;;;;14.05;11.00;;;28.60;95.60;;;;;;5014237;28;20026;-80
2023/06/21 09:51:43;;;;;;;11.27;9.93;;;28.50;96.10;;;;;;5016153;28;20041;-79
2023/06/21 09:54:08;;;;;;;12.65;9.57;;;28.30;95.30;;;;;;5016222;28;20113;-78
2023/06/21 09:56:36;;;;;;;13.75;9.55;;;28.00;96.30;;;;;;4993754;28;20137;-79
2023/06/21 09:59:02;;;;;;;10.48;9.02;;;27.80;97.10;;;;;;5015695;28;20021;-79
2023/06/21 10:01:38;;;;;;;9.10;8.25;;;27.70;97.70;;;;;;5021373;28;20033;-80
2023/06/21 10:04:12;;;;;;;11.90;9.20;;;28.20;97.20;;;;;;5039898;28;20049;-80
2023/06/21 10:06:38;;;;;;;10.50;9.38;;;28.60;96.00;;;;;;4999985;28;20049;-79
2023/06/21 10:09:09;;;;;;;12.82;9.23;;;28.50;95.40;;;;;;5005459;28;20029;-79
2023/06/21 10:11:36;;;;;;;12.68;9.35;;;28.40;95.30;;;;;;5003106;28;20100;-86
2023/06/21 10:14:04;;;;;;;10.52;9.32;;;28.10;95.90;;;;;;5007624;28;20030;-86
2023/06/21 10:16:32;;;;;;;9.40;8.52;;;27.60;96.40;;;;;;5025851;28;20021;-86
2023/06/21 10:18:59;;;;;;;11.07;9.75;;;27.10;97.40;;;;;;5008313;28;20501;-85
2023/06/21 10:21:25;;;;;;;8.10;7.28;;;26.90;98.40;;;;;;5006502;28;21338;-85
2023/06/21 10:23:53;;;;;;;8.68;7.20;;;27.00;98.40;;;;;;5010662;28;20103;-86
2023/06/21 10:26:19;;;;;;;7.78;6.30;;;28.10;97.30;;;;;;5024094;28;20018;-86
2023/06/21 10:28:53;;;;;;;12.05;8.02;;;28.90;95.80;;;;;;5019600;28;20018;-85
2023/06/21 10:31:21;;;;;;;9.43;7.43;;;29.50;94.10;;;;;;5017690;28;20046;-84
2023/06/21 10:33:49;;;;;;;10.18;7.40;;;29.90;93.00;;;;;;5023635;28;20032;-85
2023/06/21 10:36:21;;;;;;;7.55;6.85;;;30.10;92.10;;;;;;5017680;28;20033;-85
2023/06/21 10:38:48;;;;;;;7.55;6.80;;;29.50;90.90;;;;;;5020362;28;20041;-84
2023/06/21 10:41:14;;;;;;;7.95;7.25;;;29.70;90.70;;;;;;5012944;28;20026;-85
2023/06/21 10:43:42;;;;;;;8.30;7.50;;;29.30;90.20;;;;;;5016403;28;20022;-84
2023/06/21 10:46:10;;;;;;;8.85;8.00;;;28.60;91.60;;;;;;5015063;28;20113;-84
2023/06/21 10:48:36;;;;;;;9.30;7.88;;;28.40;92.40;;;;;;5022562;28;20117;-81
2023/06/21 10:51:05;;;;;;;7.45;6.60;;;28.80;92.20;;;;;;5015549;28;20018;-84
2023/06/21 10:53:35;;;;;;;6.63;5.70;;;28.70;90.00;;;;;;5021756;28;20048;-87
2023/06/21 10:56:04;;;;;;;7.53;6.32;;;28.60;90.00;;;;;;5019395;28;20030;-84
2023/06/21 10:58:30;;;;;;;6.25;5.75;;;29.40;88.80;;;;;;5019982;28;20029;-83
2023/06/21 11:00:56;;;;;;;6.97;6.30;;;30.30;85.50;;;;;;5020508;28;20101;-86
2023/06/21 11:03:28;;;;;;;6.80;6.10;;;30.70;82.20;;;;;;4999876;28;20622;-85
2023/06/21 11:06:20;;;;;;;8.48;6.18;;;31.30;78.70;;;;;;5006721;28;20083;-85
2023/06/21 11:08:45;;;;;;;8.80;6.45;;;31.50;76.70;;;;;;4999973;28;20034;-86
2023/06/21 11:11:35;;;;;;;6.75;6.10;;;31.60;76.80;;;;;;5018379;28;20095;-87
2023/06/21 11:14:02;;;;;;;7.70;6.10;;;31.50;75.10;;;;;;5001909;28;20029;-84
2023/06/21 11:16:34;;;;;;;6.32;5.82;;;31.40;74.20;;;;;;5013466;28;20678;-84
2023/06/21 11:19:06;;;;;;;6.65;5.95;;;31.40;74.00;;;;;;5009993;28;20037;-83
2023/06/21 11:21:49;;;;;;;7.68;5.90;;;31.60;73.00;;;;;;5013927;28;20450;-84
2023/06/21 11:24:19;;;;;;;7.15;6.45;;;31.30;73.40;;;;;;5016314;28;20095;-85
2023/06/21 11:26:58;;;;;;;8.50;7.28;;;30.80;74.40;;;;;;5002761;28;20039;-84
2023/06/21 11:29:36;;;;;;;8.25;7.43;;;30.90;76.20;;;;;;5001009;28;20030;-83
2023/06/21 11:32:14;;;;;;;7.85;7.03;;;30.40;74.90;;;;;;5013505;28;20148;-84
2023/06/21 11:34:56;;;;;;;8.40;6.88;;;30.00;76.20;;;;;;5014132;28;20405;-83
2023/06/21 11:37:33;;;;;;;7.60;6.00;;;29.80;78.10;;;;;;5011975;28;20021;-84
2023/06/21 11:40:04;;;;;;;6.72;5.72;;;30.00;75.50;;;;;;4994321;28;20045;-84
2023/06/21 11:42:37;;;;;;;5.22;4.80;;;29.90;75.80;;;;;;5013044;28;20571;-83
2023/06/21 11:45:38;;;;;;;6.32;5.78;;;30.10;76.30;;;;;;4994082;28;20030;-84
2023/06/21 11:48:10;;;;;;;6.10;5.55;;;30.20;74.60;;;;;;4935573;28;20027;-84
2023/06/21 11:50:43;;;;;;;7.25;6.32;;;29.90;75.80;;;;;;5005624;28;20037;-84
2023/06/21 11:53:23;;;;;;;5.82;5.30;;;30.00;76.70;;;;;;5038714;28;20029;-83
2023/06/21 11:56:00;;;;;;;7.68;5.78;;;30.40;74.50;;;;;;5025639;28;20025;-83
2023/06/21 11:58:27;;;;;;;6.68;6.00;;;30.40;74.00;;;;;;5023671;28;20895;-85
2023/06/21 12:00:53;;;;;;;6.20;5.63;;;30.00;74.20;;;;;;5003943;28;20030;-84
2023/06/21 12:03:22;;;;;;;5.03;4.53;;;29.70;74.60;;;;;;5004077;28;20358;-84
2023/06/21 12:05:58;;;;;;;7.32;4.90;;;29.40;73.70;;;;;;5016805;28;20426;-85
2023/06/21 12:08:29;;;;;;;5.10;4.35;;;29.40;74.80;;;;;;5017406;28;20389;-84
2023/06/21 12:11:03;;;;;;;5.38;4.88;;;29.70;75.40;;;;;;5012899;28;20026;-84
2023/06/21 12:13:29;;;;;;;5.13;4.63;;;30.00;73.40;;;;;;5019324;28;20096;-83
2023/06/21 12:15:58;;;;;;;5.03;4.68;;;29.90;73.80;;;;;;5000895;28;20080;-84
2023/06/21 12:18:25;;;;;;;6.57;5.53;;;29.90;74.10;;;;;;5018227;28;20026;-84
2023/06/21 12:20:54;;;;;;;14.23;5.15;;;29.90;74.50;;;;;;5018395;28;20021;-84
2023/06/21 12:23:21;;;;;;;6.55;5.43;;;30.60;74.30;;;;;;5006107;28;20026;-84
2023/06/21 12:25:51;;;;;;;6.25;5.65;;;30.90;72.30;;;;;;5017105;28;20045;-84
2023/06/21 12:28:21;;;;;;;6.15;5.55;;;31.50;70.50;;;;;;5026801;28;20690;-84
2023/06/21 12:30:53;;;;;;;5.38;4.95;;;31.80;68.50;;;;;;5008702;28;20162;-83
2023/06/21 12:33:22;;;;;;;5.47;5.03;;;31.50;69.80;;;;;;5022515;28;20026;-85
2023/06/21 12:35:47;;;;;;;5.82;5.32;;;31.50;69.60;;;;;;5017404;28;20112;-84
2023/06/21 12:38:15;;;;;;;5.00;4.60;;;31.70;69.00;;;;;;5020788;28;20104;-84